createdAt,value
2023-12-09T00:00:04.630Z,64.96
2023-12-09T00:02:32.794Z,64.75
2023-12-09T00:05:00.952Z,65.02
2023-12-09T00:07:29.773Z,64.86
2023-12-09T00:09:57.811Z,64.84
2023-12-09T00:12:27.558Z,64.79
2023-12-09T00:14:56.008Z,64.85
2023-12-09T00:17:24.085Z,64.78
2023-12-09T00:19:52.259Z,64.79
2023-12-09T00:22:20.953Z,65.06
2023-12-09T00:24:49.057Z,64.69
2023-12-09T00:27:17.318Z,64.65
2023-12-09T00:29:48.997Z,64.54
2023-12-09T00:32:17.144Z,64.72
2023-12-09T00:34:47.980Z,64.80
2023-12-09T00:37:22.744Z,64.60
2023-12-09T00:39:53.117Z,64.37
2023-12-09T00:45:14.571Z,64.55
2023-12-09T00:47:42.855Z,64.42
2023-12-09T00:50:19.083Z,64.12
2023-12-09T00:52:47.189Z,64.17
2023-12-09T00:55:32.294Z,64.33
2023-12-09T00:58:01.471Z,64.26
2023-12-09T01:00:31.257Z,64.24
2023-12-09T01:03:10.261Z,64.26
2023-12-09T01:05:42.328Z,64.36
2023-12-09T01:08:18.601Z,64.34
2023-12-09T01:10:49.233Z,64.44
2023-12-09T01:13:18.018Z,64.54
2023-12-09T01:15:47.591Z,64.76
2023-12-09T01:18:20.061Z,65.00
2023-12-09T01:21:02.713Z,64.74
2023-12-09T01:23:39.271Z,64.94
2023-12-09T01:26:12.886Z,64.88
2023-12-09T01:28:50.141Z,65.08
2023-12-09T01:31:46.687Z,64.94
2023-12-09T01:34:58.868Z,65.10
2023-12-09T01:37:27.424Z,65.08
2023-12-09T01:40:05.032Z,64.87
2023-12-09T01:42:44.389Z,64.95
2023-12-09T01:45:24.553Z,64.93
2023-12-09T01:47:56.083Z,65.05
2023-12-09T01:50:55.351Z,64.88
2023-12-09T01:53:33.069Z,65.13
2023-12-09T01:56:18.382Z,64.92
2023-12-09T02:04:40.693Z,65.10
2023-12-09T02:07:23.057Z,64.92
2023-12-09T02:09:56.679Z,65.02
2023-12-09T02:12:56.745Z,65.13
2023-12-09T02:16:40.935Z,65.19
2023-12-09T02:19:09.643Z,65.24
2023-12-09T02:25:23.713Z,65.50
2023-12-09T02:28:55.871Z,65.42
2023-12-09T02:31:47.305Z,65.52
2023-12-09T02:34:51.450Z,65.45
2023-12-09T02:37:22.260Z,65.59
2023-12-09T02:40:09.705Z,65.43
2023-12-09T02:42:55.798Z,65.64
2023-12-09T02:45:33.869Z,65.55
2023-12-09T02:48:32.825Z,65.75
2023-12-09T02:51:19.552Z,65.91
2023-12-09T02:54:09.791Z,66.17
2023-12-09T02:56:37.969Z,65.94
2023-12-09T02:59:35.895Z,65.94
2023-12-09T03:04:52.983Z,66.11
2023-12-09T03:07:29.250Z,66.04
2023-12-09T03:10:06.609Z,65.79
2023-12-09T03:12:46.101Z,66.24
2023-12-09T03:15:33.984Z,66.30
2023-12-09T03:18:10.478Z,66.29
2023-12-09T03:20:46.988Z,66.40
2023-12-09T03:23:15.218Z,66.20
2023-12-09T03:25:43.560Z,66.40
2023-12-09T03:28:14.434Z,66.29
2023-12-09T03:30:45.189Z,66.50
2023-12-09T03:33:24.701Z,66.57
2023-12-09T03:35:58.142Z,66.55
2023-12-09T03:38:40.478Z,66.68
2023-12-09T03:41:08.883Z,66.69
2023-12-09T03:43:41.731Z,66.69
2023-12-09T03:46:19.492Z,66.86
2023-12-09T03:48:48.493Z,66.75
2023-12-09T03:51:20.239Z,66.77
2023-12-09T03:53:49.738Z,66.67
2023-12-09T03:56:18.726Z,66.89
2023-12-09T03:58:46.938Z,66.93
2023-12-09T04:01:25.905Z,67.10
2023-12-09T04:03:56.396Z,66.99
2023-12-09T04:06:26.590Z,67.16
2023-12-09T04:08:58.433Z,66.97
2023-12-09T04:11:26.689Z,67.01
2023-12-09T04:14:07.055Z,67.10
2023-12-09T04:16:43.908Z,67.10
2023-12-09T04:19:12.548Z,67.20
2023-12-09T04:21:41.779Z,67.33
2023-12-09T04:24:10.037Z,67.01
2023-12-09T04:26:41.276Z,67.29
2023-12-09T04:29:20.878Z,67.35
2023-12-09T04:31:58.199Z,67.47
2023-12-09T04:34:27.679Z,67.22
2023-12-09T04:37:10.002Z,67.39
2023-12-09T04:39:40.805Z,67.42
2023-12-09T04:42:12.199Z,67.56
2023-12-09T04:44:43.538Z,67.77
2023-12-09T04:47:14.059Z,67.72
2023-12-09T04:49:42.493Z,67.88
2023-12-09T04:52:13.735Z,67.82
2023-12-09T04:54:44.958Z,67.66
2023-12-09T04:57:15.111Z,67.64
2023-12-09T04:59:44.295Z,67.62
2023-12-09T05:02:14.196Z,67.57
2023-12-09T05:04:43.569Z,67.64
2023-12-09T05:07:16.905Z,67.57
2023-12-09T05:09:45.934Z,67.54
2023-12-09T05:12:17.455Z,67.73
2023-12-09T05:14:48.966Z,67.78
2023-12-09T05:17:21.065Z,67.85
2023-12-09T05:19:50.226Z,67.80
2023-12-09T05:22:19.325Z,68.03
2023-12-09T05:27:32.464Z,67.89
2023-12-09T05:30:17.836Z,68.03
2023-12-09T05:32:47.887Z,67.93
2023-12-09T05:35:19.618Z,68.38
2023-12-09T05:40:39.639Z,68.51
2023-12-09T05:43:19.808Z,68.34
2023-12-09T05:45:57.852Z,68.54
2023-12-09T05:48:44.046Z,68.49
2023-12-09T05:51:22.274Z,68.58
2023-12-09T05:53:50.548Z,68.61
2023-12-09T05:56:32.039Z,68.70
2023-12-09T05:59:00.752Z,68.43
2023-12-09T06:01:28.852Z,68.93
2023-12-09T06:04:09.139Z,69.28
2023-12-09T06:06:37.347Z,69.53
2023-12-09T06:09:24.154Z,69.64
2023-12-09T06:12:16.253Z,69.69
2023-12-09T06:14:58.629Z,70.03
2023-12-09T06:17:26.759Z,70.16
2023-12-09T06:20:15.044Z,69.69
2023-12-09T06:22:57.870Z,70.04
2023-12-09T06:25:29.648Z,69.93
2023-12-09T06:28:00.873Z,70.19
2023-12-09T06:30:37.246Z,70.10
2023-12-09T06:33:05.797Z,70.25
2023-12-09T06:35:36.226Z,70.47
2023-12-09T06:38:10.056Z,70.21
2023-12-09T06:40:38.155Z,70.58
2023-12-09T06:43:06.197Z,70.60
2023-12-09T06:45:42.459Z,70.69
2023-12-09T06:48:11.008Z,70.61
2023-12-09T06:51:03.638Z,70.92
2023-12-09T06:53:31.791Z,71.17
2023-12-09T06:56:00.969Z,71.13
2023-12-09T06:58:41.861Z,71.15
2023-12-09T07:01:11.256Z,71.38
2023-12-09T07:06:45.179Z,71.15
2023-12-09T07:09:14.210Z,71.48
2023-12-09T07:11:46.253Z,71.52
2023-12-09T07:14:32.207Z,71.42
2023-12-09T07:17:04.385Z,71.62
2023-12-09T07:19:34.527Z,71.35
2023-12-09T07:22:06.508Z,71.39
2023-12-09T07:24:34.736Z,71.60
2023-12-09T07:27:03.460Z,71.99
2023-12-09T07:29:32.353Z,71.85
2023-12-09T07:32:02.841Z,71.89
2023-12-09T07:34:31.080Z,71.99
2023-12-09T07:37:07.941Z,72.33
2023-12-09T07:39:36.247Z,71.86
2023-12-09T07:42:09.699Z,71.61
2023-12-09T07:44:49.593Z,71.83
2023-12-09T07:47:28.298Z,71.68
2023-12-09T07:50:11.115Z,71.95
2023-12-09T07:52:43.098Z,71.44
2023-12-09T07:55:11.692Z,71.48
2023-12-09T07:57:49.118Z,71.95
2023-12-09T08:00:20.242Z,71.79
2023-12-09T08:02:48.443Z,71.67
2023-12-09T08:05:28.239Z,71.80
2023-12-09T08:08:14.048Z,72.06
2023-12-09T08:10:43.823Z,71.94
2023-12-09T08:13:31.487Z,72.33
2023-12-09T08:16:09.308Z,72.24
2023-12-09T08:18:40.718Z,71.86
2023-12-09T08:21:12.447Z,71.81
2023-12-09T08:23:44.306Z,71.86
2023-12-09T08:26:21.398Z,71.92
2023-12-09T08:28:58.222Z,71.75
2023-12-09T08:31:26.349Z,71.84
2023-12-09T08:35:07.039Z,72.03
2023-12-09T08:37:48.483Z,71.87
2023-12-09T08:40:19.361Z,71.92
2023-12-09T08:42:49.072Z,71.84
2023-12-09T08:45:19.056Z,72.11
2023-12-09T08:50:30.968Z,72.09
2023-12-09T08:53:03.586Z,71.85
2023-12-09T08:55:36.327Z,72.14
2023-12-09T08:58:04.601Z,72.20
2023-12-09T09:00:41.893Z,72.42
2023-12-09T09:03:11.574Z,72.53
2023-12-09T09:05:39.908Z,72.70
2023-12-09T09:08:08.213Z,72.87
2023-12-09T09:11:20.870Z,72.56
2023-12-09T09:14:01.523Z,72.63
2023-12-09T09:16:36.768Z,72.47
2023-12-09T09:19:20.243Z,72.70
2023-12-09T09:22:15.965Z,72.68
2023-12-09T09:25:12.811Z,73.12
2023-12-09T09:27:42.589Z,73.44
2023-12-09T09:30:27.263Z,73.30
2023-12-09T09:32:59.257Z,73.27
2023-12-09T09:35:28.055Z,73.30
2023-12-09T09:37:58.778Z,72.94
2023-12-09T09:40:26.996Z,72.41
2023-12-09T09:42:58.596Z,72.71
2023-12-09T09:45:31.417Z,72.27
2023-12-09T09:48:04.439Z,72.11
2023-12-09T09:50:32.709Z,71.80
2023-12-09T09:53:00.731Z,71.61
2023-12-09T09:55:32.679Z,71.89
2023-12-09T09:58:02.147Z,71.34
2023-12-09T10:00:30.503Z,71.51
2023-12-09T10:03:01.015Z,71.10
2023-12-09T10:05:30.386Z,70.62
2023-12-09T10:07:59.038Z,70.13
2023-12-09T10:10:27.198Z,69.79
2023-12-09T10:12:55.373Z,69.41
2023-12-09T10:15:24.979Z,69.14
2023-12-09T10:17:53.513Z,69.20
2023-12-09T10:20:21.652Z,68.57
2023-12-09T10:22:49.825Z,68.30
2023-12-09T10:25:22.405Z,68.00
2023-12-09T10:27:51.047Z,67.94
2023-12-09T10:30:20.161Z,67.57
2023-12-09T10:32:50.644Z,67.54
2023-12-09T10:35:19.042Z,66.79
2023-12-09T10:37:49.909Z,66.66
2023-12-09T10:40:21.780Z,66.60
2023-12-09T10:42:51.580Z,66.20
2023-12-09T10:45:19.941Z,65.97
2023-12-09T10:47:48.308Z,65.90
2023-12-09T10:50:17.996Z,65.50
2023-12-09T10:52:46.153Z,65.57
2023-12-09T10:55:15.794Z,65.37
2023-12-09T10:57:44.723Z,65.38
2023-12-09T11:00:17.357Z,65.39
2023-12-09T11:02:46.411Z,65.46
2023-12-09T11:05:15.327Z,65.35
2023-12-09T11:07:45.570Z,65.53
2023-12-09T11:10:14.067Z,65.49
2023-12-09T11:12:43.673Z,65.71
2023-12-09T11:15:19.561Z,65.69
2023-12-09T11:17:51.174Z,65.57
2023-12-09T11:20:27.278Z,65.65
2023-12-09T11:22:56.952Z,65.58
2023-12-09T11:25:27.075Z,65.37
2023-12-09T11:27:55.532Z,65.10
2023-12-09T11:30:34.938Z,64.77
2023-12-09T11:33:04.394Z,64.51
2023-12-09T11:35:33.216Z,64.53
2023-12-09T11:38:03.384Z,64.03
2023-12-09T11:40:32.162Z,64.35
2023-12-09T11:43:00.341Z,64.27
2023-12-09T11:45:28.944Z,63.96
2023-12-09T11:47:58.245Z,63.92
2023-12-09T11:50:26.904Z,63.70
2023-12-09T11:52:55.012Z,63.48
2023-12-09T11:55:24.595Z,63.50
2023-12-09T11:57:52.641Z,63.41
2023-12-09T12:00:21.202Z,63.18
2023-12-09T12:02:49.902Z,63.25
2023-12-09T12:05:18.194Z,63.03
2023-12-09T12:07:46.754Z,62.63
2023-12-09T12:10:16.119Z,63.10
2023-12-09T12:12:46.122Z,62.72
2023-12-09T12:15:14.444Z,62.96
2023-12-09T12:17:43.026Z,62.75
2023-12-09T12:20:12.769Z,62.35
2023-12-09T12:22:41.599Z,61.97
2023-12-09T12:25:10.929Z,61.50
2023-12-09T12:27:46.961Z,61.55
2023-12-09T12:30:15.848Z,61.18
2023-12-09T12:32:44.914Z,60.64
2023-12-09T12:35:13.554Z,60.46
2023-12-09T12:37:41.937Z,60.03
2023-12-09T12:40:11.452Z,60.26
2023-12-09T12:42:41.845Z,60.28
2023-12-09T12:45:20.457Z,60.45
2023-12-09T12:47:49.397Z,60.43
2023-12-09T12:50:18.737Z,60.76
2023-12-09T12:52:47.105Z,60.62
2023-12-09T12:55:16.325Z,60.47
2023-12-09T12:57:45.205Z,60.23
2023-12-09T13:00:16.047Z,59.81
2023-12-09T13:02:45.968Z,59.47
2023-12-09T13:05:14.197Z,59.16
2023-12-09T13:07:44.262Z,58.92
2023-12-09T13:10:12.870Z,58.53
2023-12-09T13:12:41.939Z,58.00
2023-12-09T13:15:11.562Z,57.37
2023-12-09T13:17:40.422Z,57.02
2023-12-09T13:20:11.534Z,56.70
2023-12-09T13:22:41.625Z,56.59
2023-12-09T13:25:11.509Z,55.83
2023-12-09T13:27:39.842Z,55.67
2023-12-09T13:30:10.055Z,54.93
2023-12-09T13:32:41.678Z,54.45
2023-12-09T13:35:11.985Z,54.73
2023-12-09T13:37:40.655Z,54.32
2023-12-09T13:40:12.670Z,54.98
2023-12-09T13:42:41.655Z,54.69
2023-12-09T13:45:10.928Z,54.57
2023-12-09T13:47:39.233Z,54.35
2023-12-09T13:50:08.708Z,53.02
2023-12-09T13:52:38.301Z,53.51
2023-12-09T13:55:08.986Z,53.56
2023-12-09T13:57:40.575Z,53.75
2023-12-09T14:00:12.148Z,54.08
2023-12-09T14:02:41.622Z,54.07
2023-12-09T14:05:11.481Z,54.31
2023-12-09T14:07:42.016Z,54.25
2023-12-09T14:10:11.690Z,54.19
2023-12-09T14:12:41.044Z,54.49
2023-12-09T14:15:10.059Z,54.16
2023-12-09T14:17:44.873Z,54.15
2023-12-09T14:20:16.480Z,54.67
2023-12-09T14:22:47.504Z,54.39
2023-12-09T14:25:15.880Z,53.99
2023-12-09T14:27:44.712Z,54.13
2023-12-09T14:30:13.470Z,54.65
2023-12-09T14:32:45.561Z,54.74
2023-12-09T14:35:15.612Z,54.82
2023-12-09T14:37:44.203Z,54.85
2023-12-09T14:40:14.263Z,54.82
2023-12-09T14:42:43.099Z,55.19
2023-12-09T14:45:12.181Z,55.33
2023-12-09T14:47:50.760Z,55.43
2023-12-09T14:50:26.465Z,55.50
2023-12-09T14:52:54.630Z,55.84
2023-12-09T14:55:24.170Z,55.79
2023-12-09T14:57:52.712Z,55.84
2023-12-09T15:00:21.298Z,55.76
2023-12-09T15:02:49.414Z,55.90
2023-12-09T15:05:17.789Z,56.06
2023-12-09T15:07:50.903Z,56.23
2023-12-09T15:10:19.077Z,55.85
2023-12-09T15:12:49.064Z,55.43
2023-12-09T15:15:18.764Z,55.50
2023-12-09T15:17:45.923Z,55.43
2023-12-09T15:20:14.070Z,55.45
2023-12-09T15:22:45.884Z,55.88
2023-12-09T15:25:18.112Z,56.04
2023-12-09T15:27:48.997Z,56.13
2023-12-09T15:30:19.740Z,55.78
2023-12-09T15:32:48.326Z,55.80
2023-12-09T15:35:17.322Z,55.99
2023-12-09T15:37:45.484Z,56.33
2023-12-09T15:40:17.220Z,56.08
2023-12-09T15:42:45.631Z,55.78
2023-12-09T15:45:15.313Z,55.54
2023-12-09T15:47:43.441Z,55.56
2023-12-09T15:50:11.669Z,55.58
2023-12-09T15:52:40.204Z,55.66
2023-12-09T15:55:08.789Z,55.75
2023-12-09T15:57:36.927Z,55.60
2023-12-09T16:00:06.915Z,55.37
2023-12-09T16:02:36.646Z,55.32
2023-12-09T16:05:06.966Z,55.30
2023-12-09T16:07:35.110Z,55.80
2023-12-09T16:10:07.785Z,56.02
2023-12-09T16:12:36.267Z,55.50
2023-12-09T16:15:06.896Z,55.10
2023-12-09T16:17:36.537Z,54.64
2023-12-09T16:20:05.210Z,54.83
2023-12-09T16:22:33.714Z,54.72
2023-12-09T16:25:01.871Z,54.38
2023-12-09T16:27:32.546Z,54.08
2023-12-09T16:30:00.746Z,53.79
2023-12-09T16:32:29.056Z,53.87
2023-12-09T16:35:07.302Z,54.16
2023-12-09T16:37:37.562Z,54.15
2023-12-09T16:40:08.621Z,54.57
2023-12-09T16:42:36.844Z,54.60
2023-12-09T16:45:05.858Z,54.32
2023-12-09T16:47:35.517Z,54.66
2023-12-09T16:50:07.681Z,54.95
2023-12-09T16:52:37.387Z,54.66
2023-12-09T16:55:06.306Z,55.22
2023-12-09T16:57:34.498Z,55.12
2023-12-09T17:00:02.820Z,55.68
2023-12-09T17:02:31.156Z,55.90
2023-12-09T17:05:00.020Z,56.19
2023-12-09T17:07:29.704Z,56.44
2023-12-09T17:09:57.795Z,56.78
2023-12-09T17:12:26.096Z,56.94
2023-12-09T17:14:54.462Z,57.59
2023-12-09T17:17:23.375Z,57.69
2023-12-09T17:19:52.896Z,57.13
2023-12-09T17:22:21.042Z,57.57
2023-12-09T17:24:50.883Z,57.82
2023-12-09T17:27:19.304Z,57.57
2023-12-09T17:29:47.465Z,57.47
2023-12-09T17:32:15.568Z,57.13
2023-12-09T17:34:43.703Z,57.23
2023-12-09T17:37:11.885Z,57.06
2023-12-09T17:39:40.398Z,57.79
2023-12-09T17:42:10.131Z,57.87
2023-12-09T17:44:38.427Z,57.78
2023-12-09T17:47:06.924Z,57.79
2023-12-09T17:49:38.146Z,57.56
2023-12-09T17:52:06.447Z,57.40
2023-12-09T17:54:35.377Z,57.38
2023-12-09T17:57:03.639Z,56.91
2023-12-09T17:59:33.179Z,57.21
2023-12-09T18:02:02.550Z,57.04
2023-12-09T18:04:30.666Z,56.61
2023-12-09T18:06:58.769Z,56.69
2023-12-09T18:09:26.926Z,56.57
2023-12-09T18:11:56.794Z,56.50
2023-12-09T18:14:25.050Z,56.47
2023-12-09T18:16:54.773Z,57.07
2023-12-09T18:19:22.897Z,57.34
2023-12-09T18:21:51.009Z,57.25
2023-12-09T18:24:20.315Z,57.85
2023-12-09T18:26:48.580Z,57.85
2023-12-09T18:29:16.667Z,57.55
2023-12-09T18:31:45.214Z,57.47
2023-12-09T18:34:15.024Z,57.16
2023-12-09T18:36:43.525Z,57.76
2023-12-09T18:39:11.752Z,57.26
2023-12-09T18:41:39.889Z,57.08
2023-12-09T18:44:08.053Z,57.12
2023-12-09T18:46:36.763Z,56.64
2023-12-09T18:49:04.956Z,56.40
2023-12-09T18:51:34.782Z,55.79
2023-12-09T18:54:02.893Z,55.52
2023-12-09T18:56:30.997Z,55.85
2023-12-09T18:58:59.075Z,55.63
2023-12-09T19:01:27.384Z,55.39
2023-12-09T19:03:55.522Z,55.84
2023-12-09T19:06:23.691Z,55.30
2023-12-09T19:08:53.290Z,55.79
2023-12-09T19:11:21.371Z,55.53
2023-12-09T19:13:49.472Z,55.49
2023-12-09T19:16:17.587Z,55.51
2023-12-09T19:18:45.834Z,55.36
2023-12-09T19:21:14.089Z,55.51
2023-12-09T19:23:42.160Z,55.50
2023-12-09T19:26:12.043Z,55.41
2023-12-09T19:28:40.185Z,54.94
2023-12-09T19:31:08.629Z,55.08
2023-12-09T19:33:38.313Z,55.29
2023-12-09T19:36:07.629Z,55.47
2023-12-09T19:38:35.738Z,55.33
2023-12-09T19:41:03.806Z,55.39
2023-12-09T19:43:35.562Z,55.39
2023-12-09T19:46:03.700Z,55.38
2023-12-09T19:48:31.958Z,55.52
2023-12-09T19:51:00.337Z,55.53
2023-12-09T19:53:28.440Z,55.73
2023-12-09T19:55:56.607Z,55.64
2023-12-09T19:58:24.711Z,55.64
2023-12-09T20:00:54.286Z,56.01
2023-12-09T20:03:22.743Z,56.17
2023-12-09T20:05:50.907Z,56.34
2023-12-09T20:08:18.964Z,56.07
2023-12-09T20:10:47.118Z,56.37
2023-12-09T20:13:16.876Z,56.38
2023-12-09T20:15:45.366Z,56.30
2023-12-09T20:18:15.108Z,55.90
2023-12-09T20:20:43.287Z,56.00
2023-12-09T20:23:11.431Z,56.00
2023-12-09T20:25:40.535Z,55.85
2023-12-09T20:28:08.696Z,56.17
2023-12-09T20:30:36.967Z,56.48
2023-12-09T20:33:05.439Z,56.16
2023-12-09T20:35:35.042Z,56.01
2023-12-09T20:38:04.541Z,56.26
2023-12-09T20:40:34.103Z,56.39
2023-12-09T20:43:02.207Z,56.57
2023-12-09T20:45:30.338Z,56.66
2023-12-09T20:47:58.644Z,56.75
2023-12-09T20:50:26.704Z,56.41
2023-12-09T20:52:56.398Z,56.22
2023-12-09T20:55:24.508Z,56.03
2023-12-09T20:57:52.773Z,55.64
2023-12-09T21:00:21.349Z,55.89
2023-12-09T21:02:49.582Z,56.09
2023-12-09T21:05:19.495Z,56.06
2023-12-09T21:07:48.623Z,56.13
2023-12-09T21:10:18.329Z,56.27
2023-12-09T21:12:46.629Z,55.91
2023-12-09T21:15:14.762Z,56.43
2023-12-09T21:17:43.500Z,55.73
2023-12-09T21:20:12.815Z,55.72
2023-12-09T21:22:40.944Z,55.43
2023-12-09T21:25:11.071Z,55.16
2023-12-09T21:27:40.950Z,55.36
2023-12-09T21:30:10.486Z,55.25
2023-12-09T21:32:38.692Z,55.53
2023-12-09T21:35:09.160Z,55.56
2023-12-09T21:37:37.308Z,54.95
2023-12-09T21:40:06.064Z,54.46
2023-12-09T21:42:34.265Z,54.12
2023-12-09T21:45:03.769Z,53.89
2023-12-09T21:47:32.481Z,53.96
2023-12-09T21:50:02.150Z,54.38
2023-12-09T21:52:30.470Z,54.39
2023-12-09T21:54:58.768Z,55.00
2023-12-09T21:57:27.052Z,55.06
2023-12-09T21:59:55.271Z,55.07
2023-12-09T22:02:24.706Z,55.09
2023-12-09T22:04:55.223Z,55.49
2023-12-09T22:07:23.653Z,55.43
2023-12-09T22:09:51.885Z,55.62
2023-12-09T22:12:20.119Z,55.33
2023-12-09T22:14:48.289Z,55.85
2023-12-09T22:17:17.617Z,55.68
2023-12-09T22:19:47.988Z,55.91
2023-12-09T22:22:16.101Z,56.22
2023-12-09T22:24:44.246Z,56.25
2023-12-09T22:27:12.412Z,55.97
2023-12-09T22:29:40.553Z,55.86
2023-12-09T22:32:08.772Z,56.29
2023-12-09T22:34:36.963Z,56.30
2023-12-09T22:37:07.012Z,56.26
2023-12-09T22:39:35.391Z,56.33
2023-12-09T22:42:03.516Z,55.85
2023-12-09T22:44:31.696Z,56.27
2023-12-09T22:46:59.789Z,56.33
2023-12-09T22:49:28.045Z,56.47
2023-12-09T22:51:56.240Z,56.24
2023-12-09T22:54:26.078Z,56.65
2023-12-09T22:56:54.254Z,56.50
2023-12-09T22:59:22.419Z,56.34
2023-12-09T23:01:51.621Z,56.71
2023-12-09T23:04:19.895Z,56.92
2023-12-09T23:06:48.121Z,56.93
2023-12-09T23:09:16.372Z,57.32
2023-12-09T23:11:50.412Z,58.41
2023-12-09T23:14:18.549Z,58.24
2023-12-09T23:16:50.039Z,58.36
2023-12-09T23:19:18.466Z,58.02
2023-12-09T23:21:46.700Z,58.63
2023-12-09T23:24:14.858Z,58.63
2023-12-09T23:26:42.968Z,58.81
2023-12-09T23:29:12.644Z,58.40
2023-12-09T23:31:42.130Z,58.43
2023-12-09T23:34:10.915Z,58.48
2023-12-09T23:36:39.321Z,58.61
2023-12-09T23:39:07.567Z,58.45
2023-12-09T23:41:36.898Z,58.56
2023-12-09T23:44:05.247Z,58.19
2023-12-09T23:46:34.826Z,58.56
2023-12-09T23:49:03.692Z,58.91
2023-12-09T23:51:31.950Z,59.47
2023-12-09T23:54:00.046Z,59.51
2023-12-09T23:56:28.717Z,59.58
2023-12-09T23:58:56.866Z,59.67
